Oakland City, Indiana
Current Conditions -  °F | °C
As of 11:54 PM on Wednesday 17 Dec 2014 (Local Time) from KEVV Reporting Station
Clear Clear  
Wind Chill: 24°   Ceiling: Unl
Heat Index: 30°   Visibility: 10mi
Dew Point: 24°   Wind: 6mph
Humidity: 79%   Direction: 30°NNE
Pressure: 30.31"   Gusts: NA
Location:  38.34°N, 87.35°W
Report Text: KEVV 180554Z AUTO 03005KT 10SM CLR M01/M04 A3031 RMK AO2 SLP267 T10111044 10011 21011 400281011 51002
Loading
Personal Weather Stations






























Interactive Weather Map New forecast layout! Learn more

10-Day Weather Forecast

Advertisements
Track Severe Weather on mobile